Pine Village, Pennsylvania
Current Conditions -  °F | °C
As of 3:54 AM on Sunday 21 Dec 2014 (Local Time) from KIPT Reporting Station
Overcast Overcast  
Wind Chill: 26°   Ceiling: 3000
Heat Index: 31°   Visibility: 10mi
Dew Point: 21°   Wind: 5mph
Humidity: 67%   Direction: 300°WNW
Pressure: 30.28"   Gusts: NA
Location:  41.3465°N, 77.3228°W
Report Text: KIPT 210854Z AUTO 30004KT 10SM OVC030 M01/M06 A3028 RMK AO2 SLP260 T10061061 50004
Loading
Personal Weather Stations






























Interactive Weather Map New forecast layout! Learn more

10-Day Weather Forecast

Advertisements
Track Severe Weather on mobile